Al Ain, UAE

12:26 PM GST on October 02, 2014 (GMT +0400)
Al Ain International | Change Station
CLOSE
Current Station
Airport
Location: Al Ain,
Elevation: 869 ft
Nearby Weather Stations

Elev 869 ft 24.26 °N, 55.61 °E | Updated 26 minutes ago

Clear
Clear
100 °F
Feels Like 99 °F
N
8
Wind Variable Wind from North

Today
High -- | Low -- °F
--% Chance of Precip.
Yesterday
High -- | Low -- °F
Precip. -- in
6:09 AM 6:03 PM
First Quarter, 56% visible
Pressure 29.92 in
Visibility -9999.0 miles
Clouds
Heat Index 99 °F
Dew Point 55 °F
Humidity 22%
Rainfall 0.00 in
Snow Depth Not available.
UV Not available.
Pollen Not available.
Air Quality Not available.
Flu Activity Not available.
METAR OMAL 020800Z 35007KT 290V050 CAVOK 38/13 Q1013 A2992 NOSIG

More Conditions Fewer Conditions

Pressure 29.92 in
Visibility -9999.0 miles
Clouds
Heat Index 99 °F
Dew Point 55 °F
Humidity 22%
Rainfall 0.00 in
Snow Depth Not available.
UV Not available.
Pollen Not available.
Air Quality Not available.
Flu Activity Not available.
METAR OMAL 020800Z 35007KT 290V050 CAVOK 38/13 Q1013 A2992 NOSIG

More Conditions Fewer Conditions

10-Day Weather Forecast

Almanac

Astronomy

Oct. 02, 2014 Rise Set
Actual Time 6:09 AM GST 6:03 PM GST
Civil Twilight 5:47 AM GST 6:26 PM GST
Nautical Twilight 5:20 AM GST 6:52 PM GST
Astronomical Twilight 4:54 AM GST 7:19 PM GST
Moon 1:15 PM GST No Moon Set
Length of Visible Light 12h 39m
Length of Day
11h 54m
Tomorrow will be 1m 23s shorter.
First Quarter, 56% of the Moon is Illuminated
Today
First Quarter
Oct 8
Full
Oct 15
Last Quarter
Oct 23
New
Oct 30
First Quarter

Yesterday's Extremes

Country Highs Country Lows

Community

WunderPhotos

Upload Photos

1,758,196 photos uploaded!

WunderBlogs® & News

By Dr. Jeff Masters
Director of Meteorology, Weather Underground
By Kari Strenfel
Meteorologist, Weather Underground
By Christopher C. Burt
Weather Historian, Weather Underground
October 2, 2014
October 2, 2014
October 2, 2014

Nearby

Snow Depth

Not available.

Earthquake Activity

City Distance Mag. Time & Date
No recent earthquake activity has been reported nearby.
Minimum magnitude displayed is 2.5.

Coastal Water Temperatures

Place Temperature
No Stations Reporting

Nearby Weather Stations